sensor_id;sensor_type;location;lat;lon;timestamp;temperature;humidity
41939;DHT22;23057;48.554;14.454;2024-02-14T00:00:29;-1.40;99.90
41939;DHT22;23057;48.554;14.454;2024-02-14T00:03:00;-1.40;99.90
41939;DHT22;23057;48.554;14.454;2024-02-14T00:05:31;-1.50;99.90
41939;DHT22;23057;48.554;14.454;2024-02-14T00:08:01;-1.50;99.90
41939;DHT22;23057;48.554;14.454;2024-02-14T00:10:33;-1.50;99.90
41939;DHT22;23057;48.554;14.454;2024-02-14T00:13:04;-1.50;99.90
41939;DHT22;23057;48.554;14.454;2024-02-14T00:15:35;-1.50;99.90
41939;DHT22;23057;48.554;14.454;2024-02-14T00:18:07;-1.60;99.90
41939;DHT22;23057;48.554;14.454;2024-02-14T00:20:37;-1.60;99.90
41939;DHT22;23057;48.554;14.454;2024-02-14T00:23:09;-1.60;99.90
41939;DHT22;23057;48.554;14.454;2024-02-14T00:25:41;-1.70;99.90
41939;DHT22;23057;48.554;14.454;2024-02-14T00:28:12;-1.70;99.90
41939;DHT22;23057;48.554;14.454;2024-02-14T00:30:43;-1.70;99.90
41939;DHT22;23057;48.554;14.454;2024-02-14T00:33:14;-1.60;99.90
41939;DHT22;23057;48.554;14.454;2024-02-14T00:35:45;-1.50;99.90
41939;DHT22;23057;48.554;14.454;2024-02-14T00:38:16;-1.60;99.90
41939;DHT22;23057;48.554;14.454;2024-02-14T00:40:47;-1.70;99.90
41939;DHT22;23057;48.554;14.454;2024-02-14T00:43:17;-1.80;99.90
41939;DHT22;23057;48.554;14.454;2024-02-14T00:45:48;-1.80;99.90
41939;DHT22;23057;48.554;14.454;2024-02-14T00:48:19;-1.80;99.90
41939;DHT22;23057;48.554;14.454;2024-02-14T00:50:50;-1.70;99.90
41939;DHT22;23057;48.554;14.454;2024-02-14T00:53:22;-1.70;99.90
41939;DHT22;23057;48.554;14.454;2024-02-14T00:55:53;-1.70;99.90
41939;DHT22;23057;48.554;14.454;2024-02-14T00:58:24;-1.80;99.90
41939;DHT22;23057;48.554;14.454;2024-02-14T01:00:55;-1.80;99.90
41939;DHT22;23057;48.554;14.454;2024-02-14T01:03:25;-1.70;99.90
41939;DHT22;23057;48.554;14.454;2024-02-14T01:05:56;-1.60;99.90
41939;DHT22;23057;48.554;14.454;2024-02-14T01:08:27;-1.50;99.90
41939;DHT22;23057;48.554;14.454;2024-02-14T01:10:59;-1.40;99.90
41939;DHT22;23057;48.554;14.454;2024-02-14T01:13:30;-1.40;99.90
41939;DHT22;23057;48.554;14.454;2024-02-14T01:16:00;-1.50;99.90
41939;DHT22;23057;48.554;14.454;2024-02-14T01:18:32;-1.60;99.90
41939;DHT22;23057;48.554;14.454;2024-02-14T01:21:03;-1.70;99.90
41939;DHT22;23057;48.554;14.454;2024-02-14T01:23:35;-1.80;99.90
41939;DHT22;23057;48.554;14.454;2024-02-14T01:26:06;-1.80;99.90
41939;DHT22;23057;48.554;14.454;2024-02-14T01:28:37;-1.70;99.90
41939;DHT22;23057;48.554;14.454;2024-02-14T01:31:09;-1.70;99.90
41939;DHT22;23057;48.554;14.454;2024-02-14T01:33:41;-1.80;99.90
41939;DHT22;23057;48.554;14.454;2024-02-14T01:36:12;-1.90;99.90
41939;DHT22;23057;48.554;14.454;2024-02-14T01:38:43;-1.80;99.90
41939;DHT22;23057;48.554;14.454;2024-02-14T01:41:15;-1.70;99.90
41939;DHT22;23057;48.554;14.454;2024-02-14T01:43:46;-1.60;99.90
41939;DHT22;23057;48.554;14.454;2024-02-14T01:46:18;-1.60;99.90
41939;DHT22;23057;48.554;14.454;2024-02-14T01:48:49;-1.60;99.90
41939;DHT22;23057;48.554;14.454;2024-02-14T01:51:22;-1.60;99.90
41939;DHT22;23057;48.554;14.454;2024-02-14T01:53:55;-1.60;99.90
41939;DHT22;23057;48.554;14.454;2024-02-14T01:56:26;-1.70;99.90
41939;DHT22;23057;48.554;14.454;2024-02-14T01:58:59;-1.60;99.90
41939;DHT22;23057;48.554;14.454;2024-02-14T02:01:32;-1.60;99.90
41939;DHT22;23057;48.554;14.454;2024-02-14T02:04:04;-1.50;99.90
41939;DHT22;23057;48.554;14.454;2024-02-14T02:06:35;-1.60;99.90
41939;DHT22;23057;48.554;14.454;2024-02-14T02:09:06;-1.60;99.90
41939;DHT22;23057;48.554;14.454;2024-02-14T02:11:51;-1.50;99.90
41939;DHT22;23057;48.554;14.454;2024-02-14T02:14:26;-1.50;99.90
41939;DHT22;23057;48.554;14.454;2024-02-14T02:16:57;-1.70;99.90
41939;DHT22;23057;48.554;14.454;2024-02-14T02:19:28;-1.80;99.90
41939;DHT22;23057;48.554;14.454;2024-02-14T02:21:59;-1.90;99.90
41939;DHT22;23057;48.554;14.454;2024-02-14T02:24:31;-1.90;99.90
41939;DHT22;23057;48.554;14.454;2024-02-14T02:27:03;-1.80;99.90
41939;DHT22;23057;48.554;14.454;2024-02-14T02:29:34;-1.60;99.90
41939;DHT22;23057;48.554;14.454;2024-02-14T02:32:07;-1.60;99.90
41939;DHT22;23057;48.554;14.454;2024-02-14T02:34:40;-1.50;99.90
41939;DHT22;23057;48.554;14.454;2024-02-14T02:37:13;-1.50;99.90
41939;DHT22;23057;48.554;14.454;2024-02-14T02:39:44;-1.60;99.90
41939;DHT22;23057;48.554;14.454;2024-02-14T02:42:15;-1.70;99.90
41939;DHT22;23057;48.554;14.454;2024-02-14T02:44:47;-1.80;99.90
41939;DHT22;23057;48.554;14.454;2024-02-14T02:47:20;-1.90;99.90
41939;DHT22;23057;48.554;14.454;2024-02-14T02:49:51;-1.90;99.90
41939;DHT22;23057;48.554;14.454;2024-02-14T02:52:22;-1.80;99.90
41939;DHT22;23057;48.554;14.454;2024-02-14T02:54:54;-1.70;99.90
41939;DHT22;23057;48.554;14.454;2024-02-14T02:57:25;-1.70;99.90
41939;DHT22;23057;48.554;14.454;2024-02-14T02:59:57;-1.80;99.90
41939;DHT22;23057;48.554;14.454;2024-02-14T03:02:28;-1.90;99.90
41939;DHT22;23057;48.554;14.454;2024-02-14T03:04:59;-1.90;99.90
41939;DHT22;23057;48.554;14.454;2024-02-14T03:07:30;-1.70;99.90
41939;DHT22;23057;48.554;14.454;2024-02-14T03:10:01;-1.60;99.90
41939;DHT22;23057;48.554;14.454;2024-02-14T03:12:33;-1.60;99.90
41939;DHT22;23057;48.554;14.454;2024-02-14T03:15:06;-1.60;99.90
41939;DHT22;23057;48.554;14.454;2024-02-14T03:17:40;-1.40;99.90
41939;DHT22;23057;48.554;14.454;2024-02-14T03:20:12;-1.60;99.90
41939;DHT22;23057;48.554;14.454;2024-02-14T03:22:44;-1.70;99.90
41939;DHT22;23057;48.554;14.454;2024-02-14T03:25:17;-1.90;99.90
41939;DHT22;23057;48.554;14.454;2024-02-14T03:27:50;-2.00;99.90
41939;DHT22;23057;48.554;14.454;2024-02-14T03:30:23;-1.90;99.90
41939;DHT22;23057;48.554;14.454;2024-02-14T03:32:54;-1.80;99.90
41939;DHT22;23057;48.554;14.454;2024-02-14T03:35:26;-1.90;99.90
41939;DHT22;23057;48.554;14.454;2024-02-14T03:37:57;-1.80;99.90
41939;DHT22;23057;48.554;14.454;2024-02-14T03:40:31;-1.80;99.90
41939;DHT22;23057;48.554;14.454;2024-02-14T03:43:02;-1.80;99.90
41939;DHT22;23057;48.554;14.454;2024-02-14T03:45:33;-1.80;99.90
41939;DHT22;23057;48.554;14.454;2024-02-14T03:48:04;-1.70;99.90
41939;DHT22;23057;48.554;14.454;2024-02-14T03:50:35;-1.60;99.90
41939;DHT22;23057;48.554;14.454;2024-02-14T03:53:06;-1.60;99.90
41939;DHT22;23057;48.554;14.454;2024-02-14T03:55:37;-1.60;99.90
41939;DHT22;23057;48.554;14.454;2024-02-14T03:58:08;-1.80;99.90
41939;DHT22;23057;48.554;14.454;2024-02-14T04:00:39;-2.00;99.90
41939;DHT22;23057;48.554;14.454;2024-02-14T04:03:13;-2.00;99.90
41939;DHT22;23057;48.554;14.454;2024-02-14T04:05:44;-1.90;99.90
41939;DHT22;23057;48.554;14.454;2024-02-14T04:08:15;-1.60;99.90
41939;DHT22;23057;48.554;14.454;2024-02-14T04:10:46;-1.40;99.90
41939;DHT22;23057;48.554;14.454;2024-02-14T04:13:17;-1.40;99.90
41939;DHT22;23057;48.554;14.454;2024-02-14T04:15:48;-1.60;99.90
41939;DHT22;23057;48.554;14.454;2024-02-14T04:18:19;-1.80;99.90
41939;DHT22;23057;48.554;14.454;2024-02-14T04:20:50;-1.80;99.90
41939;DHT22;23057;48.554;14.454;2024-02-14T04:23:21;-1.70;99.90
41939;DHT22;23057;48.554;14.454;2024-02-14T04:25:53;-1.70;99.90
41939;DHT22;23057;48.554;14.454;2024-02-14T04:28:24;-1.60;99.90
41939;DHT22;23057;48.554;14.454;2024-02-14T04:30:55;-1.60;99.90
41939;DHT22;23057;48.554;14.454;2024-02-14T04:33:27;-1.50;99.90
41939;DHT22;23057;48.554;14.454;2024-02-14T04:35:57;-1.50;99.90
41939;DHT22;23057;48.554;14.454;2024-02-14T04:38:29;-1.50;99.90
41939;DHT22;23057;48.554;14.454;2024-02-14T04:41:00;-1.50;99.90
41939;DHT22;23057;48.554;14.454;2024-02-14T04:43:30;-1.50;99.90
41939;DHT22;23057;48.554;14.454;2024-02-14T04:46:01;-1.50;99.90
41939;DHT22;23057;48.554;14.454;2024-02-14T04:48:33;-1.60;99.90
41939;DHT22;23057;48.554;14.454;2024-02-14T04:51:04;-1.60;99.90
41939;DHT22;23057;48.554;14.454;2024-02-14T04:53:35;-1.40;99.90
41939;DHT22;23057;48.554;14.454;2024-02-14T04:56:06;-1.40;99.90
41939;DHT22;23057;48.554;14.454;2024-02-14T04:58:38;-1.50;99.90
41939;DHT22;23057;48.554;14.454;2024-02-14T05:01:09;-1.60;99.90
41939;DHT22;23057;48.554;14.454;2024-02-14T05:03:40;-1.60;99.90
41939;DHT22;23057;48.554;14.454;2024-02-14T05:06:11;-1.70;99.90
41939;DHT22;23057;48.554;14.454;2024-02-14T05:08:42;-2.00;99.90
41939;DHT22;23057;48.554;14.454;2024-02-14T05:11:13;-2.20;99.90
41939;DHT22;23057;48.554;14.454;2024-02-14T05:13:44;-2.10;99.90
41939;DHT22;23057;48.554;14.454;2024-02-14T05:16:18;-1.90;99.90
41939;DHT22;23057;48.554;14.454;2024-02-14T05:18:49;-1.70;99.90
41939;DHT22;23057;48.554;14.454;2024-02-14T05:21:20;-1.70;99.90
41939;DHT22;23057;48.554;14.454;2024-02-14T05:23:52;-1.60;99.90
41939;DHT22;23057;48.554;14.454;2024-02-14T05:26:23;-1.50;99.90
41939;DHT22;23057;48.554;14.454;2024-02-14T05:28:54;-1.60;99.90
41939;DHT22;23057;48.554;14.454;2024-02-14T05:31:25;-1.60;99.90
41939;DHT22;23057;48.554;14.454;2024-02-14T05:34:17;-1.40;99.90
41939;DHT22;23057;48.554;14.454;2024-02-14T05:36:48;-1.40;99.90
41939;DHT22;23057;48.554;14.454;2024-02-14T05:39:19;-1.40;99.90
41939;DHT22;23057;48.554;14.454;2024-02-14T05:41:49;-1.40;99.90
41939;DHT22;23057;48.554;14.454;2024-02-14T05:44:21;-1.50;99.90
41939;DHT22;23057;48.554;14.454;2024-02-14T05:46:53;-1.60;99.90
41939;DHT22;23057;48.554;14.454;2024-02-14T05:49:24;-1.60;99.90
41939;DHT22;23057;48.554;14.454;2024-02-14T05:51:55;-1.60;99.90
41939;DHT22;23057;48.554;14.454;2024-02-14T05:54:26;-1.70;99.90
41939;DHT22;23057;48.554;14.454;2024-02-14T05:56:56;-1.60;99.90
41939;DHT22;23057;48.554;14.454;2024-02-14T05:59:28;-1.50;99.90
41939;DHT22;23057;48.554;14.454;2024-02-14T06:01:59;-1.60;99.90
41939;DHT22;23057;48.554;14.454;2024-02-14T06:04:33;-1.70;99.90
41939;DHT22;23057;48.554;14.454;2024-02-14T06:07:04;-1.90;99.90
41939;DHT22;23057;48.554;14.454;2024-02-14T06:09:37;-2.00;99.90
41939;DHT22;23057;48.554;14.454;2024-02-14T06:12:08;-2.00;99.90
41939;DHT22;23057;48.554;14.454;2024-02-14T06:14:39;-1.90;99.90
41939;DHT22;23057;48.554;14.454;2024-02-14T06:17:10;-1.60;99.90
41939;DHT22;23057;48.554;14.454;2024-02-14T06:19:41;-1.40;99.90
41939;DHT22;23057;48.554;14.454;2024-02-14T06:22:12;-1.50;99.90
41939;DHT22;23057;48.554;14.454;2024-02-14T06:24:43;-1.50;99.90
41939;DHT22;23057;48.554;14.454;2024-02-14T06:27:14;-1.50;99.90
41939;DHT22;23057;48.554;14.454;2024-02-14T06:29:45;-1.50;99.90
41939;DHT22;23057;48.554;14.454;2024-02-14T06:32:16;-1.40;99.90
41939;DHT22;23057;48.554;14.454;2024-02-14T06:34:46;-1.50;99.90
41939;DHT22;23057;48.554;14.454;2024-02-14T06:37:17;-1.50;99.90
41939;DHT22;23057;48.554;14.454;2024-02-14T06:39:48;-1.20;99.90
41939;DHT22;23057;48.554;14.454;2024-02-14T06:42:19;-0.10;99.90
41939;DHT22;23057;48.554;14.454;2024-02-14T06:44:50;0.50;99.90
41939;DHT22;23057;48.554;14.454;2024-02-14T06:47:21;0.30;99.90
41939;DHT22;23057;48.554;14.454;2024-02-14T06:49:52;0.20;99.90
41939;DHT22;23057;48.554;14.454;2024-02-14T06:52:24;0.20;99.90
41939;DHT22;23057;48.554;14.454;2024-02-14T06:54:55;0.70;99.90
41939;DHT22;23057;48.554;14.454;2024-02-14T06:57:26;1.60;99.90
41939;DHT22;23057;48.554;14.454;2024-02-14T06:59:57;2.30;99.90
41939;DHT22;23057;48.554;14.454;2024-02-14T07:02:28;3.40;99.90
41939;DHT22;23057;48.554;14.454;2024-02-14T07:04:58;4.20;99.90
41939;DHT22;23057;48.554;14.454;2024-02-14T07:07:29;4.10;99.90
41939;DHT22;23057;48.554;14.454;2024-02-14T07:10:00;4.30;99.90
41939;DHT22;23057;48.554;14.454;2024-02-14T07:12:32;3.10;99.90
41939;DHT22;23057;48.554;14.454;2024-02-14T07:15:04;2.40;99.90
41939;DHT22;23057;48.554;14.454;2024-02-14T07:17:38;2.00;99.90
41939;DHT22;23057;48.554;14.454;2024-02-14T07:20:09;1.70;99.90
41939;DHT22;23057;48.554;14.454;2024-02-14T07:22:40;1.60;99.90
41939;DHT22;23057;48.554;14.454;2024-02-14T07:25:11;1.50;99.90
41939;DHT22;23057;48.554;14.454;2024-02-14T07:27:42;1.40;99.90
41939;DHT22;23057;48.554;14.454;2024-02-14T07:30:13;1.50;99.90
41939;DHT22;23057;48.554;14.454;2024-02-14T07:32:45;1.70;99.90
41939;DHT22;23057;48.554;14.454;2024-02-14T07:35:16;1.80;99.90
41939;DHT22;23057;48.554;14.454;2024-02-14T07:37:48;2.40;99.90
41939;DHT22;23057;48.554;14.454;2024-02-14T07:40:19;3.10;99.90
41939;DHT22;23057;48.554;14.454;2024-02-14T07:42:50;3.70;99.90
41939;DHT22;23057;48.554;14.454;2024-02-14T07:45:21;4.00;99.90
41939;DHT22;23057;48.554;14.454;2024-02-14T07:47:52;4.00;99.90
41939;DHT22;23057;48.554;14.454;2024-02-14T07:50:23;4.50;99.90
41939;DHT22;23057;48.554;14.454;2024-02-14T07:52:54;4.70;99.90
41939;DHT22;23057;48.554;14.454;2024-02-14T07:55:25;4.70;99.90
41939;DHT22;23057;48.554;14.454;2024-02-14T07:57:56;3.90;99.90
41939;DHT22;23057;48.554;14.454;2024-02-14T08:00:27;3.90;99.90
41939;DHT22;23057;48.554;14.454;2024-02-14T08:02:58;3.90;99.90
41939;DHT22;23057;48.554;14.454;2024-02-14T08:05:29;3.90;99.90
41939;DHT22;23057;48.554;14.454;2024-02-14T08:07:59;3.60;99.90
41939;DHT22;23057;48.554;14.454;2024-02-14T08:10:30;3.70;99.90
41939;DHT22;23057;48.554;14.454;2024-02-14T08:13:01;3.60;99.90
41939;DHT22;23057;48.554;14.454;2024-02-14T08:15:34;3.70;99.90
41939;DHT22;23057;48.554;14.454;2024-02-14T08:18:05;3.90;99.90
41939;DHT22;23057;48.554;14.454;2024-02-14T08:20:36;4.30;99.90
41939;DHT22;23057;48.554;14.454;2024-02-14T08:23:07;4.50;99.90
41939;DHT22;23057;48.554;14.454;2024-02-14T08:25:38;4.70;99.90
41939;DHT22;23057;48.554;14.454;2024-02-14T08:28:09;4.90;99.90
41939;DHT22;23057;48.554;14.454;2024-02-14T08:30:41;5.20;99.90
41939;DHT22;23057;48.554;14.454;2024-02-14T08:33:12;5.50;99.90
41939;DHT22;23057;48.554;14.454;2024-02-14T08:35:43;5.70;31.60
41939;DHT22;23057;48.554;14.454;2024-02-14T08:38:14;6.00;1.00
41939;DHT22;23057;48.554;14.454;2024-02-14T08:40:45;5.80;99.90
41939;DHT22;23057;48.554;14.454;2024-02-14T08:43:16;4.90;99.90
41939;DHT22;23057;48.554;14.454;2024-02-14T08:45:47;4.60;99.90
41939;DHT22;23057;48.554;14.454;2024-02-14T08:48:17;4.70;99.90
41939;DHT22;23057;48.554;14.454;2024-02-14T08:50:49;4.90;99.90
41939;DHT22;23057;48.554;14.454;2024-02-14T08:53:20;5.00;99.90
41939;DHT22;23057;48.554;14.454;2024-02-14T08:55:52;4.90;99.90
41939;DHT22;23057;48.554;14.454;2024-02-14T08:58:23;4.50;99.90
41939;DHT22;23057;48.554;14.454;2024-02-14T09:00:54;4.60;99.90
41939;DHT22;23057;48.554;14.454;2024-02-14T09:03:25;4.60;99.90
41939;DHT22;23057;48.554;14.454;2024-02-14T09:05:56;4.60;99.90
41939;DHT22;23057;48.554;14.454;2024-02-14T09:08:28;4.60;99.90
41939;DHT22;23057;48.554;14.454;2024-02-14T09:10:58;4.60;99.90
41939;DHT22;23057;48.554;14.454;2024-02-14T09:13:29;4.80;99.90
41939;DHT22;23057;48.554;14.454;2024-02-14T09:16:00;4.90;60.10
41939;DHT22;23057;48.554;14.454;2024-02-14T09:18:31;5.10;15.00
41939;DHT22;23057;48.554;14.454;2024-02-14T09:21:03;5.10;1.00
41939;DHT22;23057;48.554;14.454;2024-02-14T09:23:35;5.50;1.00
41939;DHT22;23057;48.554;14.454;2024-02-14T09:26:09;5.40;99.90
41939;DHT22;23057;48.554;14.454;2024-02-14T09:28:41;5.80;99.90
41939;DHT22;23057;48.554;14.454;2024-02-14T09:31:12;5.70;99.90
41939;DHT22;23057;48.554;14.454;2024-02-14T09:33:43;5.60;99.90
41939;DHT22;23057;48.554;14.454;2024-02-14T09:36:14;5.90;99.90
41939;DHT22;23057;48.554;14.454;2024-02-14T09:38:46;6.30;99.90
41939;DHT22;23057;48.554;14.454;2024-02-14T09:41:33;6.30;1.00
41939;DHT22;23057;48.554;14.454;2024-02-14T09:44:09;6.20;1.00
41939;DHT22;23057;48.554;14.454;2024-02-14T09:46:41;6.30;1.00
41939;DHT22;23057;48.554;14.454;2024-02-14T09:49:14;6.00;1.00
41939;DHT22;23057;48.554;14.454;2024-02-14T09:51:47;5.80;1.00
41939;DHT22;23057;48.554;14.454;2024-02-14T09:54:20;5.80;1.00
41939;DHT22;23057;48.554;14.454;2024-02-14T09:56:52;5.80;1.00
41939;DHT22;23057;48.554;14.454;2024-02-14T09:59:25;5.80;1.00
41939;DHT22;23057;48.554;14.454;2024-02-14T10:01:57;5.80;1.00
41939;DHT22;23057;48.554;14.454;2024-02-14T10:04:28;5.50;1.00
41939;DHT22;23057;48.554;14.454;2024-02-14T10:06:59;5.40;6.90
41939;DHT22;23057;48.554;14.454;2024-02-14T10:09:40;5.30;12.40
41939;DHT22;23057;48.554;14.454;2024-02-14T10:12:12;5.50;1.00
41939;DHT22;23057;48.554;14.454;2024-02-14T10:14:43;5.80;1.00
41939;DHT22;23057;48.554;14.454;2024-02-14T10:17:20;5.90;1.00
41939;DHT22;23057;48.554;14.454;2024-02-14T10:19:58;6.00;1.00
41939;DHT22;23057;48.554;14.454;2024-02-14T10:22:36;6.10;99.90
41939;DHT22;23057;48.554;14.454;2024-02-14T10:25:09;6.10;99.90
41939;DHT22;23057;48.554;14.454;2024-02-14T10:27:40;6.30;99.90
41939;DHT22;23057;48.554;14.454;2024-02-14T10:30:12;6.20;99.90
41939;DHT22;23057;48.554;14.454;2024-02-14T10:32:44;6.10;99.90
41939;DHT22;23057;48.554;14.454;2024-02-14T10:35:20;6.00;99.90
41939;DHT22;23057;48.554;14.454;2024-02-14T10:37:52;6.10;99.90
41939;DHT22;23057;48.554;14.454;2024-02-14T10:40:28;5.90;99.90
41939;DHT22;23057;48.554;14.454;2024-02-14T10:42:59;5.80;99.90
41939;DHT22;23057;48.554;14.454;2024-02-14T10:45:30;5.80;99.90
41939;DHT22;23057;48.554;14.454;2024-02-14T10:48:01;5.70;99.90
41939;DHT22;23057;48.554;14.454;2024-02-14T10:50:40;5.80;99.90
41939;DHT22;23057;48.554;14.454;2024-02-14T10:53:14;5.70;99.90
41939;DHT22;23057;48.554;14.454;2024-02-14T10:55:48;5.50;99.90
41939;DHT22;23057;48.554;14.454;2024-02-14T10:58:20;5.50;99.90
41939;DHT22;23057;48.554;14.454;2024-02-14T11:00:55;5.50;99.90
41939;DHT22;23057;48.554;14.454;2024-02-14T11:03:29;5.40;99.90
41939;DHT22;23057;48.554;14.454;2024-02-14T11:06:02;5.50;99.90
41939;DHT22;23057;48.554;14.454;2024-02-14T11:08:34;5.60;99.90
41939;DHT22;23057;48.554;14.454;2024-02-14T11:11:06;5.60;99.90
41939;DHT22;23057;48.554;14.454;2024-02-14T11:13:37;5.60;99.90
41939;DHT22;23057;48.554;14.454;2024-02-14T11:16:09;5.70;99.90
41939;DHT22;23057;48.554;14.454;2024-02-14T11:18:40;5.80;99.90
41939;DHT22;23057;48.554;14.454;2024-02-14T11:21:16;6.00;99.90
41939;DHT22;23057;48.554;14.454;2024-02-14T11:23:54;6.20;99.90
41939;DHT22;23057;48.554;14.454;2024-02-14T11:26:25;6.30;99.90
41939;DHT22;23057;48.554;14.454;2024-02-14T11:29:01;6.30;99.90
41939;DHT22;23057;48.554;14.454;2024-02-14T11:31:34;6.30;99.90
41939;DHT22;23057;48.554;14.454;2024-02-14T11:34:08;6.10;99.90
41939;DHT22;23057;48.554;14.454;2024-02-14T11:36:42;6.00;99.90
41939;DHT22;23057;48.554;14.454;2024-02-14T11:39:15;6.10;99.90
41939;DHT22;23057;48.554;14.454;2024-02-14T11:41:46;6.00;99.90
41939;DHT22;23057;48.554;14.454;2024-02-14T11:44:19;6.10;99.90
41939;DHT22;23057;48.554;14.454;2024-02-14T11:46:52;6.20;99.90
41939;DHT22;23057;48.554;14.454;2024-02-14T11:49:24;6.10;99.90
41939;DHT22;23057;48.554;14.454;2024-02-14T11:51:55;6.00;99.90
41939;DHT22;23057;48.554;14.454;2024-02-14T11:54:27;6.10;99.90
41939;DHT22;23057;48.554;14.454;2024-02-14T11:56:58;6.10;99.90
41939;DHT22;23057;48.554;14.454;2024-02-14T11:59:29;6.10;99.90
41939;DHT22;23057;48.554;14.454;2024-02-14T12:02:00;6.20;99.90
41939;DHT22;23057;48.554;14.454;2024-02-14T12:04:33;6.10;99.90
41939;DHT22;23057;48.554;14.454;2024-02-14T12:07:04;6.40;99.90
41939;DHT22;23057;48.554;14.454;2024-02-14T12:09:35;6.40;99.90
41939;DHT22;23057;48.554;14.454;2024-02-14T12:12:06;6.40;99.90
41939;DHT22;23057;48.554;14.454;2024-02-14T12:14:37;6.70;99.90
41939;DHT22;23057;48.554;14.454;2024-02-14T12:17:08;6.90;99.90
41939;DHT22;23057;48.554;14.454;2024-02-14T12:19:40;6.80;99.90
41939;DHT22;23057;48.554;14.454;2024-02-14T12:22:11;6.80;99.90
41939;DHT22;23057;48.554;14.454;2024-02-14T12:24:47;6.80;99.90
41939;DHT22;23057;48.554;14.454;2024-02-14T12:27:19;6.90;99.90
41939;DHT22;23057;48.554;14.454;2024-02-14T12:29:51;7.20;99.90
41939;DHT22;23057;48.554;14.454;2024-02-14T12:32:22;7.30;99.90
41939;DHT22;23057;48.554;14.454;2024-02-14T12:34:55;7.10;99.90
41939;DHT22;23057;48.554;14.454;2024-02-14T12:37:28;7.10;99.90
41939;DHT22;23057;48.554;14.454;2024-02-14T12:39:59;7.10;99.90
41939;DHT22;23057;48.554;14.454;2024-02-14T12:42:30;7.30;99.90
41939;DHT22;23057;48.554;14.454;2024-02-14T12:45:02;7.60;99.90
41939;DHT22;23057;48.554;14.454;2024-02-14T12:47:34;7.50;99.90
41939;DHT22;23057;48.554;14.454;2024-02-14T12:50:06;7.50;99.90
41939;DHT22;23057;48.554;14.454;2024-02-14T12:52:40;7.40;99.90
41939;DHT22;23057;48.554;14.454;2024-02-14T12:55:11;7.60;99.90
41939;DHT22;23057;48.554;14.454;2024-02-14T12:57:42;7.80;99.90
41939;DHT22;23057;48.554;14.454;2024-02-14T13:00:14;8.20;99.90
41939;DHT22;23057;48.554;14.454;2024-02-14T13:02:45;8.40;52.30
41939;DHT22;23057;48.554;14.454;2024-02-14T13:05:17;8.70;91.10
41939;DHT22;23057;48.554;14.454;2024-02-14T13:07:48;9.10;46.00
41939;DHT22;23057;48.554;14.454;2024-02-14T13:10:19;9.20;7.70
41939;DHT22;23057;48.554;14.454;2024-02-14T13:12:50;9.50;1.00
41939;DHT22;23057;48.554;14.454;2024-02-14T13:15:21;9.30;1.00
41939;DHT22;23057;48.554;14.454;2024-02-14T13:17:52;9.40;1.00
41939;DHT22;23057;48.554;14.454;2024-02-14T13:20:23;9.10;1.00
41939;DHT22;23057;48.554;14.454;2024-02-14T13:22:54;8.80;1.00
41939;DHT22;23057;48.554;14.454;2024-02-14T13:25:25;8.80;1.00
41939;DHT22;23057;48.554;14.454;2024-02-14T13:27:56;8.60;1.00
41939;DHT22;23057;48.554;14.454;2024-02-14T13:30:29;8.50;1.00
41939;DHT22;23057;48.554;14.454;2024-02-14T13:33:00;8.40;13.00
41939;DHT22;23057;48.554;14.454;2024-02-14T13:35:31;8.30;22.90
41939;DHT22;23057;48.554;14.454;2024-02-14T13:38:08;8.30;41.30
41939;DHT22;23057;48.554;14.454;2024-02-14T13:40:41;8.50;38.40
41939;DHT22;23057;48.554;14.454;2024-02-14T13:43:12;8.70;34.80
41939;DHT22;23057;48.554;14.454;2024-02-14T13:45:44;9.20;32.70
41939;DHT22;23057;48.554;14.454;2024-02-14T13:48:18;9.70;1.00
41939;DHT22;23057;48.554;14.454;2024-02-14T13:50:49;10.00;1.00
41939;DHT22;23057;48.554;14.454;2024-02-14T13:53:20;9.90;1.00
41939;DHT22;23057;48.554;14.454;2024-02-14T13:55:53;9.70;1.00
41939;DHT22;23057;48.554;14.454;2024-02-14T13:58:24;9.30;1.00
41939;DHT22;23057;48.554;14.454;2024-02-14T14:00:54;8.90;1.00
41939;DHT22;23057;48.554;14.454;2024-02-14T14:03:25;8.80;38.10
41939;DHT22;23057;48.554;14.454;2024-02-14T14:05:57;8.90;67.10
41939;DHT22;23057;48.554;14.454;2024-02-14T14:08:28;8.80;88.90
41939;DHT22;23057;48.554;14.454;2024-02-14T14:10:59;8.70;99.90
41939;DHT22;23057;48.554;14.454;2024-02-14T14:13:30;8.60;99.90
41939;DHT22;23057;48.554;14.454;2024-02-14T14:16:03;8.60;99.90
41939;DHT22;23057;48.554;14.454;2024-02-14T14:18:35;8.60;99.90
41939;DHT22;23057;48.554;14.454;2024-02-14T14:21:06;8.50;99.90
41939;DHT22;23057;48.554;14.454;2024-02-14T14:23:37;8.30;84.70
41939;DHT22;23057;48.554;14.454;2024-02-14T14:26:08;8.30;90.80
41939;DHT22;23057;48.554;14.454;2024-02-14T14:28:39;8.20;92.10
41939;DHT22;23057;48.554;14.454;2024-02-14T14:31:10;8.20;99.90
41939;DHT22;23057;48.554;14.454;2024-02-14T14:33:41;8.20;99.90
41939;DHT22;23057;48.554;14.454;2024-02-14T14:36:13;8.20;99.90
41939;DHT22;23057;48.554;14.454;2024-02-14T14:38:44;8.20;99.90
41939;DHT22;23057;48.554;14.454;2024-02-14T14:41:14;8.10;99.90
41939;DHT22;23057;48.554;14.454;2024-02-14T14:43:45;8.00;99.90
41939;DHT22;23057;48.554;14.454;2024-02-14T14:46:19;7.90;99.90
41939;DHT22;23057;48.554;14.454;2024-02-14T14:48:50;7.90;99.90
41939;DHT22;23057;48.554;14.454;2024-02-14T14:51:21;7.80;99.90
41939;DHT22;23057;48.554;14.454;2024-02-14T14:53:52;7.60;99.90
41939;DHT22;23057;48.554;14.454;2024-02-14T14:56:23;7.50;99.90
41939;DHT22;23057;48.554;14.454;2024-02-14T14:58:56;7.30;99.90
41939;DHT22;23057;48.554;14.454;2024-02-14T15:01:32;7.20;99.90
41939;DHT22;23057;48.554;14.454;2024-02-14T15:04:06;7.20;99.90
41939;DHT22;23057;48.554;14.454;2024-02-14T15:06:39;7.10;99.90
41939;DHT22;23057;48.554;14.454;2024-02-14T15:09:11;7.20;99.90
41939;DHT22;23057;48.554;14.454;2024-02-14T15:11:42;7.20;99.90
41939;DHT22;23057;48.554;14.454;2024-02-14T15:14:13;7.30;99.90
41939;DHT22;23057;48.554;14.454;2024-02-14T15:16:44;7.40;99.90
41939;DHT22;23057;48.554;14.454;2024-02-14T15:19:15;7.40;99.90
41939;DHT22;23057;48.554;14.454;2024-02-14T15:21:46;7.50;99.90
41939;DHT22;23057;48.554;14.454;2024-02-14T15:24:17;7.50;99.90
41939;DHT22;23057;48.554;14.454;2024-02-14T15:26:48;7.40;99.90
41939;DHT22;23057;48.554;14.454;2024-02-14T15:29:30;7.50;99.90
41939;DHT22;23057;48.554;14.454;2024-02-14T15:32:19;7.50;99.90
41939;DHT22;23057;48.554;14.454;2024-02-14T15:35:09;7.40;99.90
41939;DHT22;23057;48.554;14.454;2024-02-14T15:37:39;7.30;99.90
41939;DHT22;23057;48.554;14.454;2024-02-14T15:40:13;7.20;99.90
41939;DHT22;23057;48.554;14.454;2024-02-14T15:42:44;7.20;99.90
41939;DHT22;23057;48.554;14.454;2024-02-14T15:45:15;7.10;99.90
41939;DHT22;23057;48.554;14.454;2024-02-14T15:47:47;7.10;1.00
41939;DHT22;23057;48.554;14.454;2024-02-14T15:50:17;7.10;1.00
41939;DHT22;23057;48.554;14.454;2024-02-14T15:52:48;7.10;1.00